Time;durP1;ratioP1;P1;durP2;ratioP2;P2;SDS_P1;SDS_P2;PMS_P1;PMS_P2;Temp;Humidity;BMP_temperature;BMP_pressure;BME280_temperature;BME280_humidity;BME280_pressure;Samples;Min_cycle;Max_cycle;Signal;HPM_P1;HPM_P2
2021/01/07 00:01:39;;;;;;;13.27;8.51;;;1.70;99.90;;;6.96;83.72;101369.61;1704582;74;24914;-74
2021/01/07 00:03:55;;;;;;;14.86;9.90;;;1.80;99.90;;;6.91;82.61;101366.39;1703096;74;24890;-73
2021/01/07 00:06:13;;;;;;;14.24;8.88;;;1.80;99.90;;;7.04;83.04;101352.63;1702412;74;24894;-72
2021/01/07 00:08:29;;;;;;;12.62;9.28;;;1.80;99.90;;;7.06;83.25;101357.85;1697806;74;24524;-74
2021/01/07 00:10:47;;;;;;;14.82;9.20;;;1.80;99.90;;;7.10;83.47;101353.22;1699264;74;24675;-74
2021/01/07 00:13:03;;;;;;;13.40;8.50;;;1.80;99.90;;;7.14;83.27;101353.40;1698459;74;25036;-73
2021/01/07 00:15:19;;;;;;;11.01;8.50;;;1.80;99.90;;;7.02;83.14;101350.39;1694521;74;24883;-75
2021/01/07 00:17:35;;;;;;;12.04;8.52;;;1.90;99.90;;;7.17;83.34;101349.61;1697829;74;24967;-72
2021/01/07 00:19:51;;;;;;;12.14;8.04;;;1.90;99.90;;;7.04;83.17;101347.45;1701316;74;24490;-73
2021/01/07 00:22:07;;;;;;;12.55;8.79;;;1.90;99.90;;;7.05;82.53;101348.34;1707401;74;24939;-72
2021/01/07 00:24:23;;;;;;;12.83;8.20;;;1.80;99.90;;;7.00;82.64;101344.28;1697414;74;24459;-72
2021/01/07 00:26:40;;;;;;;15.31;8.53;;;1.80;99.90;;;7.00;83.36;101347.30;1697015;74;24445;-76
2021/01/07 00:28:56;;;;;;;10.99;7.67;;;1.80;99.90;;;6.93;83.74;101347.52;1707213;74;24897;-74
2021/01/07 00:31:13;;;;;;;12.14;7.97;;;1.80;99.90;;;6.86;84.40;101350.71;1697679;74;24555;-74
2021/01/07 00:33:29;;;;;;;10.90;7.66;;;1.80;99.90;;;6.83;84.58;101340.70;1706255;74;24889;-74
2021/01/07 00:35:46;;;;;;;9.71;7.04;;;1.70;99.90;;;6.88;84.70;101341.30;1705233;74;24449;-74
2021/01/07 00:38:03;;;;;;;10.18;7.31;;;1.70;99.90;;;6.86;83.64;101340.80;1701471;74;24458;-74
2021/01/07 00:40:20;;;;;;;11.88;7.68;;;1.70;99.90;;;6.80;84.28;101344.05;1703594;74;24452;-73
2021/01/07 00:42:36;;;;;;;13.19;7.66;;;1.70;99.90;;;6.87;84.37;101344.73;1687663;75;24526;-74
2021/01/07 00:44:52;;;;;;;10.46;7.63;;;1.70;99.90;;;6.75;84.00;101341.71;1683377;75;24899;-74
2021/01/07 00:47:08;;;;;;;12.09;7.56;;;1.60;99.90;;;6.69;85.57;101336.73;1701555;75;24472;-74
2021/01/07 00:49:26;;;;;;;12.59;8.17;;;1.60;99.90;;;6.76;85.56;101337.42;1693438;75;24444;-74
2021/01/07 00:51:42;;;;;;;11.33;8.03;;;1.60;99.90;;;6.72;85.83;101338.16;1682087;75;24481;-74
2021/01/07 00:53:58;;;;;;;12.05;8.21;;;1.60;99.90;;;6.68;86.41;101325.53;1698965;75;24536;-74
2021/01/07 00:56:15;;;;;;;12.04;7.98;;;1.60;99.90;;;6.70;85.67;101332.91;1688808;75;24474;-73
2021/01/07 00:58:33;;;;;;;10.32;7.86;;;1.60;99.90;;;6.73;86.29;101331.75;1679235;75;24903;-74
2021/01/07 01:00:49;;;;;;;12.79;7.34;;;1.70;99.90;;;6.83;85.82;101328.61;1685009;75;24876;-73
2021/01/07 01:03:06;;;;;;;8.93;7.13;;;1.70;99.90;;;6.91;84.80;101328.45;1686774;75;25140;-73
2021/01/07 01:05:22;;;;;;;10.86;7.38;;;1.80;99.90;;;6.89;85.31;101326.22;1689429;75;24542;-73
2021/01/07 01:07:39;;;;;;;8.05;5.76;;;1.80;99.90;;;7.02;85.60;101324.91;1689935;75;24570;-74
2021/01/07 01:09:55;;;;;;;9.70;6.64;;;1.90;99.90;;;6.92;85.58;101321.17;1686999;75;24517;-75
2021/01/07 01:12:12;;;;;;;8.36;6.37;;;2.00;99.90;;;6.97;85.99;101323.47;1663040;75;25071;-73
2021/01/07 01:14:28;;;;;;;9.11;6.10;;;2.10;99.90;;;7.08;85.65;101322.55;1688836;75;24911;-73
2021/01/07 01:16:44;;;;;;;7.84;5.55;;;2.20;99.90;;;7.09;85.18;101319.11;1683036;75;24464;-75
2021/01/07 01:19:01;;;;;;;7.63;5.23;;;2.20;99.90;;;7.06;85.21;101314.73;1689338;75;24516;-73
2021/01/07 01:21:19;;;;;;;9.20;6.05;;;2.30;99.90;;;7.18;84.98;101320.69;1695828;75;24892;-73
2021/01/07 01:23:35;;;;;;;9.58;5.74;;;2.30;99.90;;;7.26;84.95;101312.74;1687682;75;24465;-73
2021/01/07 01:25:51;;;;;;;10.79;6.35;;;2.30;99.90;;;7.11;84.96;101318.75;1702185;75;24870;-72
2021/01/07 01:28:07;;;;;;;10.48;6.38;;;2.40;99.90;;;7.11;85.30;101320.91;1687782;75;24502;-74
2021/01/07 01:30:25;;;;;;;8.17;5.75;;;2.40;99.90;;;7.12;85.50;101316.61;1692630;75;24614;-74
2021/01/07 01:32:43;;;;;;;9.37;6.74;;;2.40;99.90;;;7.01;85.42;101321.46;1699705;75;24545;-73
2021/01/07 01:34:59;;;;;;;10.44;6.40;;;2.40;99.90;;;6.94;85.81;101316.90;1691666;75;24507;-74
2021/01/07 01:37:17;;;;;;;9.49;7.16;;;2.50;99.90;;;6.95;86.47;101317.39;1688752;75;24517;-73
2021/01/07 01:39:33;;;;;;;8.15;6.24;;;2.50;99.90;;;7.05;86.61;101318.56;1687200;75;24564;-73
2021/01/07 01:41:51;;;;;;;7.70;6.16;;;2.50;99.90;;;7.13;86.27;101314.08;1683529;75;24894;-73
2021/01/07 01:44:08;;;;;;;9.06;5.83;;;2.40;99.90;;;7.21;86.17;101315.20;1696230;75;24447;-75
2021/01/07 01:46:24;;;;;;;8.49;6.68;;;2.50;99.90;;;7.31;85.46;101322.84;1690418;75;24447;-74
2021/01/07 01:48:43;;;;;;;8.28;6.03;;;2.50;99.90;;;7.23;85.58;101317.42;1687269;75;24512;-74
2021/01/07 01:51:00;;;;;;;7.84;6.09;;;2.50;99.90;;;7.33;85.77;101316.86;1695122;75;24481;-74
2021/01/07 01:53:17;;;;;;;8.61;5.92;;;2.50;99.90;;;7.24;85.34;101315.28;1692839;75;24437;-73
2021/01/07 01:55:33;;;;;;;7.25;5.78;;;2.50;99.90;;;7.24;85.80;101313.99;1685484;75;24892;-73
2021/01/07 01:57:51;;;;;;;9.11;6.51;;;2.50;99.90;;;7.26;85.72;101313.63;1699981;75;24508;-72
2021/01/07 02:00:11;;;;;;;8.38;6.06;;;2.50;99.90;;;7.21;86.02;101315.20;1692355;75;24482;-74
2021/01/07 02:02:28;;;;;;;8.34;6.32;;;2.50;99.90;;;7.24;85.85;101312.70;1691064;75;24926;-73
2021/01/07 02:04:45;;;;;;;9.89;6.66;;;2.40;99.90;;;7.18;86.36;101306.44;1690557;75;24516;-74
2021/01/07 02:07:04;;;;;;;9.58;6.53;;;2.40;99.90;;;7.19;85.77;101311.67;1688424;75;24460;-75
2021/01/07 02:09:20;;;;;;;8.06;6.29;;;2.40;99.90;;;7.24;85.80;101304.07;1686330;75;24450;-73
2021/01/07 02:11:39;;;;;;;8.57;6.61;;;2.40;99.90;;;7.39;86.16;101309.70;1686247;75;24493;-73
2021/01/07 02:13:57;;;;;;;8.28;6.80;;;2.40;99.90;;;7.43;85.49;101305.06;1694158;75;24506;-73
2021/01/07 02:16:14;;;;;;;11.92;6.90;;;2.40;99.90;;;7.41;85.51;101313.23;1682797;75;24914;-73
2021/01/07 02:18:33;;;;;;;9.29;6.51;;;2.40;99.90;;;7.31;85.30;101313.36;1686745;75;24529;-73
2021/01/07 02:20:49;;;;;;;10.41;6.80;;;2.40;99.90;;;7.23;85.72;101318.72;1692062;75;24580;-74
2021/01/07 02:23:06;;;;;;;10.66;6.70;;;2.40;99.90;;;7.12;86.38;101312.73;1692836;75;24500;-73
2021/01/07 02:25:23;;;;;;;7.99;6.70;;;2.50;99.90;;;7.06;86.76;101315.13;1679362;75;24513;-73
2021/01/07 02:27:39;;;;;;;10.55;6.85;;;2.50;99.90;;;7.04;87.23;101312.90;1689563;75;24442;-73
2021/01/07 02:29:55;;;;;;;7.99;6.28;;;2.40;99.90;;;7.02;87.27;101311.96;1690647;75;24577;-74
2021/01/07 02:32:12;;;;;;;9.14;6.54;;;2.50;99.90;;;6.96;87.27;101310.48;1704120;75;24516;-75
2021/01/07 02:34:29;;;;;;;10.23;7.03;;;2.40;99.90;;;7.09;86.97;101312.23;1687938;75;24459;-72
2021/01/07 02:36:45;;;;;;;8.90;6.89;;;2.50;99.90;;;7.00;86.85;101318.39;1688825;74;24501;-72
2021/01/07 02:39:01;;;;;;;9.97;6.83;;;2.40;99.90;;;7.10;87.18;101306.21;1691716;75;24438;-74
2021/01/07 02:41:17;;;;;;;8.48;6.75;;;2.40;99.90;;;6.96;86.31;101307.89;1699142;75;24445;-74
2021/01/07 02:43:33;;;;;;;8.67;7.02;;;2.40;99.90;;;6.83;87.57;101311.80;1696353;75;24433;-73
2021/01/07 02:45:50;;;;;;;10.35;7.37;;;2.40;99.90;;;6.93;87.62;101311.27;1714385;74;24503;-74
2021/01/07 02:48:08;;;;;;;9.73;7.06;;;2.40;99.90;;;6.89;87.70;101305.52;1714367;74;24454;-73
2021/01/07 02:50:24;;;;;;;10.32;6.93;;;2.30;99.90;;;6.88;87.93;101305.47;1713221;74;24898;-74
2021/01/07 02:52:40;;;;;;;9.92;7.38;;;2.30;99.90;;;6.81;86.87;101307.41;1706903;74;24946;-73
2021/01/07 02:54:56;;;;;;;10.61;7.77;;;2.30;99.90;;;6.84;87.71;101304.92;1713850;74;24546;-73
2021/01/07 02:57:14;;;;;;;11.09;7.54;;;2.30;99.90;;;6.98;87.87;101297.17;1707840;74;24437;-74
2021/01/07 02:59:32;;;;;;;11.00;8.23;;;2.30;99.90;;;6.98;87.07;101300.66;1709044;74;24874;-73
2021/01/07 03:01:49;;;;;;;11.67;7.96;;;2.30;99.90;;;6.89;87.98;101296.89;1709005;74;24468;-74
2021/01/07 03:04:05;;;;;;;10.52;8.20;;;2.30;99.90;;;6.90;88.04;101298.64;1709808;74;24550;-73
2021/01/07 03:06:21;;;;;;;10.84;8.38;;;2.30;99.90;;;6.93;87.87;101300.03;1714646;74;24890;-74
2021/01/07 03:08:37;;;;;;;11.62;8.68;;;2.30;99.90;;;7.05;88.04;101300.00;1704594;74;24499;-73
2021/01/07 03:10:53;;;;;;;11.90;8.69;;;2.30;99.90;;;7.03;87.38;101301.69;1707022;74;24449;-73
2021/01/07 03:13:09;;;;;;;10.81;8.48;;;2.30;99.90;;;6.94;87.02;101296.62;1715462;74;24894;-74
2021/01/07 03:15:25;;;;;;;12.81;9.22;;;2.30;99.90;;;6.97;87.62;101297.58;1712468;74;24569;-74
2021/01/07 03:17:42;;;;;;;11.04;8.76;;;2.30;99.90;;;6.98;87.45;101297.17;1705028;74;24444;-74
2021/01/07 03:19:58;;;;;;;12.80;9.18;;;2.30;99.90;;;6.93;88.05;101298.73;1711808;74;25942;-74
2021/01/07 03:22:14;;;;;;;11.08;8.72;;;2.30;99.90;;;6.84;87.96;101295.45;1705630;74;24448;-73
2021/01/07 03:24:36;;;;;;;11.15;8.94;;;2.30;99.90;;;6.89;87.53;101291.27;1706569;74;24847;-74
2021/01/07 03:26:52;;;;;;;11.81;9.23;;;2.30;99.90;;;6.88;87.69;101293.41;1711383;74;24445;-74
2021/01/07 03:29:08;;;;;;;11.04;8.79;;;2.30;99.90;;;6.81;87.90;101290.14;1706209;74;24494;-73
2021/01/07 03:31:24;;;;;;;11.89;9.30;;;2.30;99.90;;;6.94;88.06;101284.55;1709585;74;24916;-75
2021/01/07 03:33:40;;;;;;;13.32;9.12;;;2.30;99.90;;;6.84;88.43;101283.80;1707203;74;24508;-73
2021/01/07 03:35:56;;;;;;;12.27;9.05;;;2.30;99.90;;;6.71;87.60;101278.16;1708894;74;24647;-73
2021/01/07 03:38:12;;;;;;;12.20;8.67;;;2.20;99.90;;;6.89;88.33;101279.62;1713055;74;24438;-73
2021/01/07 03:40:29;;;;;;;11.83;9.86;;;2.20;99.90;;;6.95;87.72;101283.73;1705485;74;24429;-74
2021/01/07 03:42:46;;;;;;;12.03;9.43;;;2.20;99.90;;;6.78;87.95;101285.31;1701732;74;24510;-74
2021/01/07 03:45:03;;;;;;;12.85;9.26;;;2.20;99.90;;;6.80;88.40;101280.64;1691658;75;24559;-73
2021/01/07 03:47:19;;;;;;;12.66;9.26;;;2.20;99.90;;;6.88;88.41;101278.28;1697586;75;24477;-74
2021/01/07 03:49:36;;;;;;;11.90;9.49;;;2.20;99.90;;;6.78;88.05;101284.02;1690895;75;24425;-73
2021/01/07 03:51:52;;;;;;;10.60;7.82;;;2.20;99.90;;;6.73;88.57;101279.10;1688157;75;24504;-73
2021/01/07 03:54:08;;;;;;;11.79;8.68;;;2.20;99.90;;;6.63;88.42;101281.80;1687528;75;24510;-74
2021/01/07 03:56:24;;;;;;;12.29;8.89;;;2.20;99.90;;;6.64;88.90;101277.52;1692173;75;24425;-74
2021/01/07 03:58:40;;;;;;;11.63;9.40;;;2.20;99.90;;;6.68;88.77;101274.19;1691413;75;24450;-73
2021/01/07 04:00:56;;;;;;;10.92;8.92;;;2.20;99.90;;;6.80;88.55;101274.57;1689060;75;25015;-73
2021/01/07 04:03:13;;;;;;;14.94;10.21;;;2.20;99.90;;;6.87;89.15;101273.95;1686029;75;24458;-73
2021/01/07 04:05:29;;;;;;;11.01;9.35;;;2.20;99.90;;;7.03;89.03;101269.33;1692626;75;24958;-74
2021/01/07 04:07:45;;;;;;;12.94;9.45;;;2.20;99.90;;;7.02;88.68;101270.53;1691735;75;24445;-73
2021/01/07 04:10:01;;;;;;;11.54;9.70;;;2.20;99.90;;;7.09;88.70;101264.73;1690163;75;24545;-74
2021/01/07 04:12:17;;;;;;;13.73;9.80;;;2.30;99.90;;;7.09;88.22;101271.20;1696232;75;24503;-74
2021/01/07 04:14:33;;;;;;;11.69;9.46;;;2.30;99.90;;;7.00;87.76;101258.84;1689354;75;24996;-73
2021/01/07 04:16:50;;;;;;;12.61;9.74;;;2.30;99.90;;;6.90;88.03;101258.52;1691540;75;24469;-74
2021/01/07 04:19:06;;;;;;;11.85;9.24;;;2.30;99.90;;;6.94;88.44;101258.66;1696614;75;24453;-73
2021/01/07 04:21:25;;;;;;;11.37;8.74;;;2.30;99.90;;;6.87;87.81;101264.48;1692795;75;24496;-74
2021/01/07 04:23:41;;;;;;;11.61;9.44;;;2.30;99.90;;;6.86;87.61;101260.13;1691320;74;24434;-74
2021/01/07 04:25:57;;;;;;;14.24;9.74;;;2.20;99.90;;;6.89;87.84;101261.95;1686784;75;24932;-74
2021/01/07 04:28:13;;;;;;;13.49;9.30;;;2.30;99.90;;;7.05;88.76;101257.72;1690564;75;24477;-73
2021/01/07 04:30:30;;;;;;;12.03;9.50;;;2.30;99.90;;;7.11;88.11;101258.76;1696246;75;24465;-73
2021/01/07 04:32:46;;;;;;;14.12;9.80;;;2.30;99.90;;;7.18;88.17;101255.95;1691887;75;24433;-73
2021/01/07 04:35:02;;;;;;;13.14;10.59;;;2.30;99.90;;;6.87;87.42;101256.73;1682698;75;24500;-74
2021/01/07 04:37:18;;;;;;;13.36;10.28;;;2.30;99.90;;;6.87;88.29;101258.02;1685349;75;24501;-73
2021/01/07 04:39:34;;;;;;;13.01;9.97;;;2.30;99.90;;;6.74;88.64;101249.39;1693070;75;24507;-73
2021/01/07 04:41:51;;;;;;;13.48;9.91;;;2.30;99.90;;;6.78;89.24;101249.08;1688520;75;24454;-73
2021/01/07 04:44:08;;;;;;;14.94;10.69;;;2.30;99.90;;;6.82;88.51;101244.05;1697962;75;24450;-73
2021/01/07 04:46:25;;;;;;;13.42;9.50;;;2.30;99.90;;;6.89;88.71;101242.09;1693216;75;24544;-73
2021/01/07 04:48:43;;;;;;;13.75;10.74;;;2.30;99.90;;;7.02;88.69;101237.77;1695789;75;24528;-74
2021/01/07 04:50:59;;;;;;;12.42;9.58;;;2.30;99.90;;;6.94;88.57;101241.83;1692429;75;24460;-73
2021/01/07 04:53:17;;;;;;;13.54;9.86;;;2.30;99.90;;;7.01;88.55;101236.03;1697389;75;24442;-73
2021/01/07 04:55:34;;;;;;;13.13;9.78;;;2.30;99.90;;;6.86;88.27;101235.53;1687893;75;24441;-73
2021/01/07 04:57:50;;;;;;;14.24;9.96;;;2.30;99.90;;;6.79;89.02;101240.47;1697965;75;24434;-73
2021/01/07 05:00:11;;;;;;;13.99;10.26;;;2.30;99.90;;;6.71;89.06;101232.48;1702335;75;25104;-73
2021/01/07 05:02:29;;;;;;;12.95;9.80;;;2.30;99.90;;;6.84;88.92;101234.63;1694917;75;24442;-72
2021/01/07 05:04:53;;;;;;;13.23;10.48;;;2.30;99.90;;;6.80;89.46;101231.47;1694059;75;24432;-74
2021/01/07 05:07:10;;;;;;;12.72;9.06;;;2.30;99.90;;;6.83;89.57;101235.88;1694278;75;24485;-74
2021/01/07 05:09:29;;;;;;;12.04;8.41;;;2.30;99.90;;;6.85;88.82;101231.61;1691186;75;24518;-74
2021/01/07 05:11:45;;;;;;;10.50;8.70;;;2.30;99.90;;;6.80;88.92;101230.58;1689183;75;24976;-75
2021/01/07 05:14:02;;;;;;;12.73;9.36;;;2.30;99.90;;;6.86;89.21;101232.94;1690897;75;24464;-72
2021/01/07 05:16:24;;;;;;;13.77;10.23;;;2.30;99.90;;;6.81;89.34;101225.88;1680298;75;24904;-73
2021/01/07 05:18:43;;;;;;;14.59;10.63;;;2.30;99.90;;;6.78;89.85;101228.38;1699792;75;24676;-73
2021/01/07 05:21:02;;;;;;;15.70;10.37;;;2.30;99.90;;;6.73;89.96;101230.83;1686179;75;24565;-73
2021/01/07 05:23:21;;;;;;;10.92;7.61;;;2.30;99.90;;;6.69;89.66;101230.65;1691499;75;24447;-73
2021/01/07 05:25:41;;;;;;;16.73;11.21;;;2.30;99.90;;;6.62;89.69;101230.89;1689489;75;24579;-74
2021/01/07 05:27:59;;;;;;;18.16;11.95;;;2.30;99.90;;;6.83;90.82;101231.55;1692180;75;24507;-72
2021/01/07 05:30:18;;;;;;;21.64;13.60;;;2.30;99.90;;;6.83;90.10;101219.91;1692628;75;24433;-73
2021/01/07 05:32:40;;;;;;;22.06;13.47;;;2.30;99.90;;;6.81;90.25;101218.97;1686568;75;24939;-74
2021/01/07 05:34:57;;;;;;;23.03;14.00;;;2.30;99.90;;;6.88;90.24;101218.34;1695527;75;24997;-73
2021/01/07 05:37:18;;;;;;;21.03;13.25;;;2.30;99.90;;;6.86;90.12;101220.00;1695209;75;24437;-74
2021/01/07 05:39:37;;;;;;;22.69;13.30;;;2.30;99.90;;;6.91;90.05;101215.85;1694660;75;24945;-73
2021/01/07 05:41:57;;;;;;;19.72;12.85;;;2.30;99.90;;;6.86;89.78;101212.67;1695256;75;24438;-73
2021/01/07 05:44:16;;;;;;;20.33;12.93;;;2.30;99.90;;;6.90;89.90;101211.92;1688757;75;24526;-73
2021/01/07 05:46:34;;;;;;;19.68;12.80;;;2.30;99.90;;;6.99;89.57;101211.80;1700917;74;24429;-72
2021/01/07 05:48:57;;;;;;;20.80;14.08;;;2.30;99.90;;;6.96;89.21;101211.70;1706900;74;24425;-73
2021/01/07 05:51:15;;;;;;;20.60;12.98;;;2.30;99.90;;;6.91;89.75;101211.08;1698621;74;24908;-72
2021/01/07 05:53:32;;;;;;;18.22;12.31;;;2.30;99.90;;;7.04;89.47;101207.64;1701075;74;24473;-73
2021/01/07 05:55:50;;;;;;;16.40;11.07;;;2.30;99.90;;;7.02;89.33;101205.41;1707560;74;24891;-74
2021/01/07 05:58:08;;;;;;;19.22;12.44;;;2.30;99.90;;;6.92;89.08;101203.39;1710462;74;24449;-74
2021/01/07 06:00:32;;;;;;;18.32;12.12;;;2.30;99.90;;;6.91;89.33;101205.91;1673765;75;24472;-72
2021/01/07 06:02:55;;;;;;;18.54;12.78;;;2.40;99.90;;;7.03;89.52;101205.00;1712541;74;24500;-74
2021/01/07 06:05:16;;;;;;;20.19;12.65;;;2.40;99.90;;;7.04;89.38;101197.28;1707809;74;24868;-72
2021/01/07 06:07:35;;;;;;;16.72;11.43;;;2.40;99.90;;;7.17;89.23;101199.82;1703660;74;24490;-73
2021/01/07 06:09:57;;;;;;;17.63;12.24;;;2.40;99.90;;;7.12;88.50;101197.09;1699021;74;24942;-74
2021/01/07 06:12:16;;;;;;;16.02;11.63;;;2.40;99.90;;;7.28;89.29;101197.13;1696194;74;25002;-73
2021/01/07 06:14:34;;;;;;;16.16;11.54;;;2.40;99.90;;;7.18;88.38;101192.09;1707940;74;24889;-73
2021/01/07 06:16:54;;;;;;;17.41;12.47;;;2.40;99.90;;;7.16;89.19;101194.19;1695124;74;24943;-74
2021/01/07 06:19:33;;;;;;;17.50;12.29;;;2.40;99.90;;;7.16;88.82;101193.75;1692977;74;24516;-74
2021/01/07 06:21:56;;;;;;;19.06;12.89;;;2.40;99.90;;;7.19;89.26;101197.72;1703630;74;24448;-73
2021/01/07 06:24:19;;;;;;;17.70;12.36;;;2.40;99.90;;;7.22;88.84;101197.81;1705559;74;24914;-73
2021/01/07 06:26:39;;;;;;;16.65;11.91;;;2.40;99.90;;;7.16;88.84;101199.37;1701089;74;24489;-73
2021/01/07 06:29:01;;;;;;;16.90;12.59;;;2.40;99.90;;;7.11;89.10;101195.32;1694933;74;24904;-73
2021/01/07 06:31:21;;;;;;;18.61;13.05;;;2.50;99.90;;;7.06;88.96;101195.63;1707726;74;24586;-73
2021/01/07 06:33:39;;;;;;;19.65;13.37;;;2.50;99.90;;;7.18;89.02;101198.56;1708195;74;24512;-74
2021/01/07 06:35:59;;;;;;;22.29;13.88;;;2.50;99.90;;;7.17;88.84;101196.83;1693016;74;24434;-74
2021/01/07 06:38:29;;;;;;;19.13;13.20;;;2.40;99.90;;;7.14;89.37;101203.21;1707236;74;24894;-73
2021/01/07 06:40:47;;;;;;;20.40;13.58;;;2.40;99.90;;;7.10;89.43;101200.05;1693478;74;25004;-73
2021/01/07 06:43:06;;;;;;;19.62;12.70;;;2.50;99.90;;;7.02;89.43;101206.70;1699028;74;24947;-73
2021/01/07 06:45:25;;;;;;;19.14;12.89;;;2.50;99.90;;;7.13;89.93;101201.44;1703307;74;24501;-74
2021/01/07 06:47:44;;;;;;;18.30;12.66;;;2.50;99.90;;;7.15;90.04;101203.66;1691149;74;24985;-74
2021/01/07 06:50:04;;;;;;;19.14;12.26;;;2.50;99.90;;;7.08;89.30;101199.11;1682078;74;24513;-73
2021/01/07 06:52:24;;;;;;;18.55;13.37;;;2.50;99.90;;;7.05;89.35;101202.05;1693141;75;24950;-74
2021/01/07 06:54:44;;;;;;;20.11;12.93;;;2.50;99.90;;;7.06;89.93;101201.21;1695901;75;24528;-74
2021/01/07 06:57:03;;;;;;;17.39;11.70;;;2.50;99.90;;;7.02;90.24;101201.94;1690088;75;24492;-73
2021/01/07 06:59:24;;;;;;;20.25;13.52;;;2.50;99.90;;;6.97;89.83;101197.91;1683095;75;24464;-72
2021/01/07 07:01:50;;;;;;;16.72;12.20;;;2.50;99.90;;;7.03;90.18;101204.59;1679392;75;24979;-72
2021/01/07 07:04:08;;;;;;;19.32;13.17;;;2.50;99.90;;;7.11;89.96;101201.80;1688722;75;24483;-73
2021/01/07 07:06:31;;;;;;;20.14;13.81;;;2.50;99.90;;;7.17;90.51;101199.41;1690727;75;24499;-72
2021/01/07 07:08:51;;;;;;;18.81;12.80;;;2.50;99.90;;;7.09;90.60;101200.00;1689906;75;24565;-73
2021/01/07 07:11:30;;;;;;;18.90;11.72;;;2.50;99.90;;;6.96;90.17;101209.11;1696590;75;24512;-73
2021/01/07 07:13:47;;;;;;;18.70;12.90;;;2.50;99.90;;;7.05;90.34;101196.88;1689574;75;24495;-74
2021/01/07 07:16:09;;;;;;;19.77;13.32;;;2.50;99.90;;;7.09;90.61;101200.89;1688507;75;24552;-75
2021/01/07 07:18:35;;;;;;;19.24;13.20;;;2.50;99.90;;;7.05;90.86;101200.76;1694591;75;24441;-75
2021/01/07 07:20:53;;;;;;;18.70;11.42;;;2.50;99.90;;;7.11;90.43;101200.50;1686125;75;24512;-74
2021/01/07 07:23:19;;;;;;;19.13;13.19;;;2.50;99.90;;;7.03;89.93;101202.42;1690859;74;24465;-74
2021/01/07 07:25:38;;;;;;;18.53;13.08;;;2.50;99.90;;;7.04;90.62;101198.58;1690904;75;24473;-73
2021/01/07 07:27:58;;;;;;;15.61;10.10;;;2.50;99.90;;;7.07;90.80;101198.67;1688221;75;24996;-73
2021/01/07 07:30:22;;;;;;;18.06;11.85;;;2.50;99.90;;;6.96;90.62;101204.34;1689289;75;24484;-74
2021/01/07 07:32:45;;;;;;;18.22;12.00;;;2.50;99.90;;;7.16;91.26;101201.52;1687665;75;24512;-76
2021/01/07 07:35:06;;;;;;;14.11;7.31;;;2.50;99.90;;;7.13;90.85;101206.61;1687048;75;24374;-75
2021/01/07 07:37:28;;;;;;;15.31;10.44;;;2.50;99.90;;;6.89;90.62;101208.89;1677342;75;24443;-72
2021/01/07 07:39:49;;;;;;;14.57;10.03;;;2.50;99.90;;;7.17;90.89;101208.48;1684058;75;24490;-72
2021/01/07 07:42:17;;;;;;;16.47;9.18;;;2.50;99.90;;;7.20;90.77;101212.45;1686997;75;24999;-73
2021/01/07 07:44:35;;;;;;;17.53;11.00;;;2.60;99.90;;;7.03;90.48;101206.30;1684388;75;24481;-73
2021/01/07 07:46:56;;;;;;;16.35;10.37;;;2.60;99.90;;;7.03;91.18;101214.06;1689312;75;24918;-74
2021/01/07 07:49:13;;;;;;;18.21;11.10;;;2.60;99.90;;;7.07;91.38;101209.42;1699790;75;24510;-72
2021/01/07 07:51:31;;;;;;;16.63;10.49;;;2.60;99.90;;;7.15;90.89;101210.54;1702669;74;24488;-73
2021/01/07 07:53:50;;;;;;;16.91;11.30;;;2.60;99.90;;;7.07;91.16;101214.20;1701414;74;24488;-76
2021/01/07 07:56:22;;;;;;;17.16;10.88;;;2.60;99.90;;;7.14;91.45;101216.16;1698193;74;24581;-73
2021/01/07 07:58:38;;;;;;;16.53;10.52;;;2.60;99.90;;;7.22;91.41;101216.37;1694785;74;24568;-75
2021/01/07 08:00:58;;;;;;;17.50;10.89;;;2.60;99.90;;;7.16;91.43;101210.58;1701481;74;24535;-77
2021/01/07 08:03:21;;;;;;;17.17;11.92;;;2.60;99.90;;;7.15;91.24;101215.72;1697037;74;24465;-75
2021/01/07 08:05:38;;;;;;;20.23;12.22;;;2.70;99.90;;;7.07;91.52;101218.08;1701994;74;24866;-73
2021/01/07 08:07:55;;;;;;;18.42;11.82;;;2.70;99.90;;;7.12;91.97;101219.52;1700491;74;24894;-73
2021/01/07 08:10:13;;;;;;;19.61;12.70;;;2.70;99.90;;;7.17;91.99;101221.83;1695334;74;24443;-74
2021/01/07 08:12:30;;;;;;;16.50;12.32;;;2.70;99.90;;;7.25;91.64;101221.64;1696131;74;24529;-75
2021/01/07 08:14:48;;;;;;;16.52;11.93;;;2.70;99.90;;;7.28;91.62;101213.55;1700604;74;24493;-74
2021/01/07 08:17:06;;;;;;;17.87;12.06;;;2.80;99.90;;;7.16;91.60;101224.83;1705612;74;24442;-73
2021/01/07 08:19:31;;;;;;;18.30;12.32;;;2.70;99.90;;;7.21;91.87;101225.84;1702050;74;24530;-76
2021/01/07 08:21:54;;;;;;;18.11;12.33;;;2.80;99.90;;;7.23;92.01;101227.19;1699334;74;25004;-75
2021/01/07 08:24:15;;;;;;;20.44;12.71;;;2.80;99.90;;;7.34;91.64;101225.79;1697936;75;24480;-74
2021/01/07 08:26:32;;;;;;;17.18;10.96;;;2.80;99.90;;;7.42;91.60;101222.60;1699356;74;24886;-73
2021/01/07 08:28:50;;;;;;;18.20;11.65;;;2.80;99.90;;;7.44;91.37;101222.64;1696303;74;24993;-76
2021/01/07 08:31:09;;;;;;;18.27;11.79;;;2.90;99.90;;;7.46;91.15;101220.55;1699052;74;24506;-72
2021/01/07 08:33:28;;;;;;;15.06;9.07;;;2.90;99.90;;;7.56;90.90;101223.87;1697751;74;24512;-75
2021/01/07 08:35:46;;;;;;;16.07;10.52;;;3.00;99.90;;;7.45;90.82;101227.88;1697255;74;24512;-72
2021/01/07 08:38:02;;;;;;;17.59;12.16;;;2.90;99.90;;;7.56;90.85;101226.87;1699249;74;24507;-72
2021/01/07 08:40:22;;;;;;;16.07;11.30;;;3.00;99.90;;;7.55;91.29;101219.95;1700093;74;25069;-75
2021/01/07 08:42:40;;;;;;;16.01;11.30;;;3.00;99.90;;;7.55;90.86;101219.95;1703831;74;24474;-72
2021/01/07 08:45:01;;;;;;;17.50;11.56;;;3.00;99.90;;;7.64;91.28;101221.48;1696323;74;24497;-75
2021/01/07 08:47:25;;;;;;;16.76;11.46;;;3.10;99.90;;;7.42;91.35;101220.42;1689151;74;24824;-74
2021/01/07 08:49:40;;;;;;;14.90;11.11;;;3.10;99.90;;;7.61;91.30;101230.08;1694044;74;24535;-73
2021/01/07 08:52:17;;;;;;;15.00;11.02;;;3.10;99.90;;;7.56;91.33;101221.28;1701277;74;24579;-76
2021/01/07 08:54:35;;;;;;;13.56;9.86;;;3.10;99.90;;;7.48;91.67;101221.88;1700569;74;25415;-74
2021/01/07 08:56:53;;;;;;;13.99;10.11;;;3.10;99.90;;;7.63;91.45;101223.63;1697107;74;24558;-73
2021/01/07 08:59:31;;;;;;;15.20;10.35;;;3.10;99.90;;;7.74;91.53;101220.92;1695597;74;24513;-74
2021/01/07 09:01:53;;;;;;;15.84;10.79;;;3.10;99.90;;;7.68;91.42;101216.87;1695224;74;24971;-73
2021/01/07 09:04:34;;;;;;;16.80;10.62;;;3.20;99.90;;;7.72;91.31;101219.99;1692911;74;24553;-75
2021/01/07 09:07:05;;;;;;;14.18;9.70;;;3.10;99.90;;;7.68;91.62;101232.42;1704120;74;24453;-74
2021/01/07 09:09:21;;;;;;;16.54;11.39;;;3.10;99.90;;;7.85;92.02;101221.20;1705854;74;24542;-75
2021/01/07 09:11:38;;;;;;;16.01;10.05;;;3.20;99.90;;;7.89;91.70;101224.36;1703765;74;24536;-74
2021/01/07 09:14:06;;;;;;;15.30;11.08;;;3.20;99.90;;;7.69;91.37;101220.80;1693828;75;24757;-73
2021/01/07 09:16:26;;;;;;;15.03;10.50;;;3.20;99.90;;;7.80;91.85;101226.68;1698029;74;24458;-73
2021/01/07 09:18:42;;;;;;;14.63;10.73;;;3.20;99.90;;;8.04;91.94;101228.23;1698125;74;24478;-73
2021/01/07 09:21:01;;;;;;;14.81;10.23;;;3.30;99.90;;;7.85;91.34;101225.09;1701026;74;24472;-74
2021/01/07 09:23:17;;;;;;;14.36;10.50;;;3.30;99.90;;;7.82;91.38;101225.91;1708276;74;25927;-74
2021/01/07 09:25:34;;;;;;;15.07;10.95;;;3.30;99.90;;;7.78;91.60;101234.86;1696320;74;25049;-76
2021/01/07 09:27:51;;;;;;;16.38;10.50;;;3.30;99.90;;;7.90;91.39;101230.88;1699623;74;24516;-74
2021/01/07 09:30:10;;;;;;;14.50;9.89;;;3.30;99.90;;;7.81;91.93;101228.45;1699507;74;24501;-74
2021/01/07 09:32:27;;;;;;;10.91;8.33;;;3.30;99.90;;;8.06;91.76;101228.28;1707266;74;24504;-75
2021/01/07 09:34:45;;;;;;;14.40;9.98;;;3.30;99.90;;;8.01;91.61;101219.49;1696390;74;25669;-75
2021/01/07 09:37:10;;;;;;;12.90;10.05;;;3.40;99.90;;;8.00;91.61;101221.20;1703040;74;24426;-76
2021/01/07 09:39:30;;;;;;;13.60;9.55;;;3.40;99.90;;;7.99;91.60;101222.45;1700079;74;24576;-77
2021/01/07 09:41:47;;;;;;;13.41;9.35;;;3.50;99.90;;;8.27;91.56;101219.36;1698369;74;24772;-75